Time;durP1;ratioP1;P1;durP2;ratioP2;P2;SDS_P1;SDS_P2;PMS_P1;PMS_P2;Temp;Humidity;BMP_temperature;BMP_pressure;BME280_temperature;BME280_humidity;BME280_pressure;Samples;Min_cycle;Max_cycle;Signal;HPM_P1;HPM_P2
2022/07/12 00:00:48;;;;;;;;;;;;;;;;;;5054672;28;19917;-85
2022/07/12 00:03:13;;;;;;;;;;;;;;;;;;5054605;28;20062;-85
2022/07/12 00:05:39;;;;;;;;;;;;;;;;;;5054397;28;20251;-85
2022/07/12 00:08:06;;;;;;;;;;;;;;;;;;5036568;28;20366;-84
2022/07/12 00:10:31;;;;;;;;;;;;;;;;;;5054251;28;19924;-84
2022/07/12 00:12:56;;;;;;;;;;;;;;;;;;5054698;28;20242;-83
2022/07/12 00:15:22;;;;;;;;;;;;;;;;;;5061880;28;19937;-84
2022/07/12 00:17:47;;;;;;;;;;;;;;;;;;5025965;28;19916;-85
2022/07/12 00:20:12;;;;;;;;;;;;;;;;;;5054434;28;19917;-84
2022/07/12 00:22:37;;;;;;;;;;;;;;;;;;5054433;28;19917;-84
2022/07/12 00:25:03;;;;;;;;;;;;;;;;;;5054020;28;19917;-84
2022/07/12 00:27:28;;;;;;;;;;;;;;;;;;5054890;28;19917;-84
2022/07/12 00:29:54;;;;;;;;;;;;;;;;;;5053989;28;19965;-83
2022/07/12 00:32:19;;;;;;;;;;;;;;;;;;5058457;28;19917;-82
2022/07/12 00:34:44;;;;;;;;;;;;;;;;;;5058498;28;19917;-83
2022/07/12 00:37:10;;;;;;;;;;;;;;;;;;5073813;28;19928;-84
2022/07/12 00:39:35;;;;;;;;;;;;;;;;;;5068164;28;19917;-85
2022/07/12 00:42:00;;;;;;;;;;;;;;;;;;5070066;28;19917;-83
2022/07/12 00:44:26;;;;;;;;;;;;;;;;;;5065024;28;19978;-84
2022/07/12 00:46:51;;;;;;;;;;;;;;;;;;5049158;28;19920;-82
2022/07/12 00:49:17;;;;;;;;;;;;;;;;;;5044601;28;19923;-85
2022/07/12 00:51:42;;;;;;;;;;;;;;;;;;5057920;28;19917;-85
2022/07/12 00:54:08;;;;;;;;;;;;;;;;;;5057722;28;20257;-84
2022/07/12 00:56:33;;;;;;;;;;;;;;;;;;5066660;28;19995;-83
2022/07/12 00:58:58;;;;;;;;;;;;;;;;;;5045330;28;20301;-84
2022/07/12 01:01:24;;;;;;;;;;;;;;;;;;5057902;28;19924;-84
2022/07/12 01:03:49;;;;;;;;;;;;;;;;;;5057330;28;20400;-84
2022/07/12 01:06:14;;;;;;;;;;;;;;;;;;5057803;28;19947;-83
2022/07/12 01:08:40;;;;;;;;;;;;;;;;;;5039674;28;19924;-83
2022/07/12 01:11:05;;;;;;;;;;;;;;;;;;5057644;28;20259;-83
2022/07/12 01:13:30;;;;;;;;;;;;;;;;;;5057465;28;19916;-84
2022/07/12 01:15:56;;;;;;;;;;;;;;;;;;5040071;28;20021;-87
2022/07/12 01:21:05;;;;;;;;;;;;;;;;;;5057218;28;19924;-85
2022/07/12 01:23:31;;;;;;;;;;;;;;;;;;5039876;28;19916;-83
2022/07/12 01:25:56;;;;;;;;;;;;;;;;;;5057227;28;20015;-82
2022/07/12 01:28:21;;;;;;;;;;;;;;;;;;5057016;28;20343;-83
2022/07/12 01:30:48;;;;;;;;;;;;;;;;;;5057283;28;19921;-82
2022/07/12 01:33:14;;;;;;;;;;;;;;;;;;5039575;28;19923;-83
2022/07/12 01:35:39;;;;;;;;;;;;;;;;;;5056980;28;19917;-84
2022/07/12 01:38:04;;;;;;;;;;;;;;;;;;5034298;28;19905;-82
2022/07/12 01:40:30;;;;;;;;;;;;;;;;;;5040137;28;19917;-85
2022/07/12 01:42:55;;;;;;;;;;;;;;;;;;5056476;28;19916;-85
2022/07/12 01:45:20;;;;;;;;;;;;;;;;;;5039126;28;19917;-84
2022/07/12 01:47:46;;;;;;;;;;;;;;;;;;5038856;28;20390;-84
2022/07/12 01:50:11;;;;;;;;;;;;;;;;;;5056952;28;20203;-83
2022/07/12 01:52:38;;;;;;;;;;;;;;;;;;5056851;28;19917;-84
2022/07/12 01:55:03;;;;;;;;;;;;;;;;;;5039089;28;19940;-83
2022/07/12 01:57:28;;;;;;;;;;;;;;;;;;5039507;28;19917;-84
2022/07/12 01:59:54;;;;;;;;;;;;;;;;;;5054608;28;19927;-86
2022/07/12 02:02:19;;;;;;;;;;;;;;;;;;5038991;28;19923;-84
2022/07/12 02:04:44;;;;;;;;;;;;;;;;;;5056535;28;19917;-85
2022/07/12 02:07:10;;;;;;;;;;;;;;;;;;5056234;28;19917;-84
2022/07/12 02:09:35;;;;;;;;;;;;;;;;;;5056518;28;20302;-83
2022/07/12 02:12:01;;;;;;;;;;;;;;;;;;5038276;28;20358;-84
2022/07/12 02:14:26;;;;;;;;;;;;;;;;;;5038737;28;19923;-84
2022/07/12 02:16:52;;;;;;;;;;;;;;;;;;5064084;28;19912;-84
2022/07/12 02:19:17;;;;;;;;;;;;;;;;;;5029642;28;20012;-84
2022/07/12 02:21:42;;;;;;;;;;;;;;;;;;5056385;28;20312;-84
2022/07/12 02:24:08;;;;;;;;;;;;;;;;;;5055959;28;19962;-85
2022/07/12 02:26:34;;;;;;;;;;;;;;;;;;5056296;28;19923;-85
2022/07/12 02:29:00;;;;;;;;;;;;;;;;;;5038389;28;19917;-83
2022/07/12 02:31:25;;;;;;;;;;;;;;;;;;5037935;28;19917;-84
2022/07/12 02:33:51;;;;;;;;;;;;;;;;;;5055808;28;19916;-85
2022/07/12 02:36:16;;;;;;;;;;;;;;;;;;5058958;28;19955;-84
2022/07/12 02:38:41;;;;;;;;;;;;;;;;;;5064516;28;19921;-85
2022/07/12 02:41:07;;;;;;;;;;;;;;;;;;5037837;28;19990;-84
2022/07/12 02:43:32;;;;;;;;;;;;;;;;;;5037657;28;20342;-84
2022/07/12 02:46:08;;;;;;;;;;;;;;;;;;5037664;28;20312;-86
2022/07/12 02:48:33;;;;;;;;;;;;;;;;;;5037856;28;19916;-84
2022/07/12 02:50:59;;;;;;;;;;;;;;;;;;5055736;28;20050;-83
2022/07/12 02:53:24;;;;;;;;;;;;;;;;;;5054896;28;19923;-85
2022/07/12 02:55:50;;;;;;;;;;;;;;;;;;5055777;28;19920;-83
2022/07/12 02:58:15;;;;;;;;;;;;;;;;;;5071346;28;19921;-84
2022/07/12 03:00:41;;;;;;;;;;;;;;;;;;5055627;28;20007;-85
2022/07/12 03:03:09;;;;;;;;;;;;;;;;;;5055241;28;19916;-86
2022/07/12 03:05:34;;;;;;;;;;;;;;;;;;5055115;28;19923;-85
2022/07/12 03:08:00;;;;;;;;;;;;;;;;;;5057524;28;19916;-84
2022/07/12 03:10:26;;;;;;;;;;;;;;;;;;5055616;28;20316;-85
2022/07/12 03:12:51;;;;;;;;;;;;;;;;;;5055317;28;19917;-85
2022/07/12 03:15:16;;;;;;;;;;;;;;;;;;5055353;28;20274;-86
2022/07/12 03:17:42;;;;;;;;;;;;;;;;;;5059552;28;19921;-85
2022/07/12 03:20:11;;;;;;;;;;;;;;;;;;5057576;28;19917;-84
2022/07/12 03:22:36;;;;;;;;;;;;;;;;;;5054717;28;19916;-84
2022/07/12 03:25:01;;;;;;;;;;;;;;;;;;5055024;28;19921;-85
2022/07/12 03:27:27;;;;;;;;;;;;;;;;;;5054804;28;20323;-85
2022/07/12 03:29:52;;;;;;;;;;;;;;;;;;5061769;28;19917;-84
2022/07/12 03:32:19;;;;;;;;;;;;;;;;;;5054691;28;19966;-83
2022/07/12 03:34:44;;;;;;;;;;;;;;;;;;5054708;28;19917;-85
2022/07/12 03:37:09;;;;;;;;;;;;;;;;;;5055141;28;19924;-83
2022/07/12 03:39:34;;;;;;;;;;;;;;;;;;5068073;28;19916;-85
2022/07/12 03:42:00;;;;;;;;;;;;;;;;;;5055394;28;19924;-84
2022/07/12 03:44:25;;;;;;;;;;;;;;;;;;5054715;28;19927;-85
2022/07/12 03:46:50;;;;;;;;;;;;;;;;;;5054478;28;19924;-84
2022/07/12 03:49:16;;;;;;;;;;;;;;;;;;5055096;28;19916;-84
2022/07/12 03:51:41;;;;;;;;;;;;;;;;;;5055733;28;19924;-84
2022/07/12 03:54:10;;;;;;;;;;;;;;;;;;5054851;28;19913;-85
2022/07/12 03:59:19;;;;;;;;;;;;;;;;;;5066661;28;19916;-84
2022/07/12 04:01:44;;;;;;;;;;;;;;;;;;5055748;28;19921;-85
2022/07/12 04:04:09;;;;;;;;;;;;;;;;;;5054191;28;19920;-85
2022/07/12 04:06:35;;;;;;;;;;;;;;;;;;5054545;28;19960;-85
2022/07/12 04:09:00;;;;;;;;;;;;;;;;;;5054643;28;20354;-83
2022/07/12 04:11:26;;;;;;;;;;;;;;;;;;5054455;28;20322;-86
2022/07/12 04:13:51;;;;;;;;;;;;;;;;;;5054524;28;20007;-85
2022/07/12 04:16:16;;;;;;;;;;;;;;;;;;5054202;28;19917;-85
2022/07/12 04:18:41;;;;;;;;;;;;;;;;;;5058935;28;19955;-85
2022/07/12 04:21:07;;;;;;;;;;;;;;;;;;5028920;28;19917;-84
2022/07/12 04:23:32;;;;;;;;;;;;;;;;;;5036309;28;19921;-85
2022/07/12 04:25:58;;;;;;;;;;;;;;;;;;5054366;28;20033;-84
2022/07/12 04:28:24;;;;;;;;;;;;;;;;;;5054164;28;20315;-85
2022/07/12 04:30:49;;;;;;;;;;;;;;;;;;5054150;28;19952;-84
2022/07/12 04:33:14;;;;;;;;;;;;;;;;;;5054305;28;19917;-85
2022/07/12 04:35:40;;;;;;;;;;;;;;;;;;5036155;28;20326;-85
2022/07/12 04:38:05;;;;;;;;;;;;;;;;;;5054448;28;19917;-86
2022/07/12 04:40:30;;;;;;;;;;;;;;;;;;5050955;28;19921;-85
2022/07/12 04:42:56;;;;;;;;;;;;;;;;;;5054843;28;19913;-85
2022/07/12 04:45:21;;;;;;;;;;;;;;;;;;5036175;28;19917;-85
2022/07/12 04:47:47;;;;;;;;;;;;;;;;;;5054104;28;19916;-85
2022/07/12 04:50:12;;;;;;;;;;;;;;;;;;5036190;28;19913;-84
2022/07/12 04:52:37;;;;;;;;;;;;;;;;;;5036564;28;19917;-84
2022/07/12 04:55:03;;;;;;;;;;;;;;;;;;5036644;28;19913;-86
2022/07/12 04:57:29;;;;;;;;;;;;;;;;;;5054045;28;19923;-85
2022/07/12 04:59:54;;;;;;;;;;;;;;;;;;5058371;28;19917;-85
2022/07/12 05:02:19;;;;;;;;;;;;;;;;;;5062637;28;19928;-85
2022/07/12 05:04:45;;;;;;;;;;;;;;;;;;5054497;28;19917;-86
2022/07/12 05:07:11;;;;;;;;;;;;;;;;;;5054465;28;19917;-86
2022/07/12 05:09:36;;;;;;;;;;;;;;;;;;5053730;28;19974;-90
2022/07/12 05:12:02;;;;;;;;;;;;;;;;;;5036622;28;19971;-86
2022/07/12 05:14:27;;;;;;;;;;;;;;;;;;5064087;28;19951;-85
2022/07/12 05:16:52;;;;;;;;;;;;;;;;;;5067010;28;19928;-81
2022/07/12 05:19:18;;;;;;;;;;;;;;;;;;5045337;28;19921;-83
2022/07/12 05:21:44;;;;;;;;;;;;;;;;;;5070676;28;19927;-80
2022/07/12 05:24:09;;;;;;;;;;;;;;;;;;5044113;28;19917;-80
2022/07/12 05:26:34;;;;;;;;;;;;;;;;;;5061156;28;19917;-80
2022/07/12 05:29:00;;;;;;;;;;;;;;;;;;5060872;28;19916;-80
2022/07/12 05:31:26;;;;;;;;;;;;;;;;;;5063154;28;19920;-80
2022/07/12 05:33:52;;;;;;;;;;;;;;;;;;5067699;28;19921;-81
2022/07/12 05:36:17;;;;;;;;;;;;;;;;;;5058668;28;19924;-80
2022/07/12 05:38:42;;;;;;;;;;;;;;;;;;5041956;28;20018;-78
2022/07/12 05:41:08;;;;;;;;;;;;;;;;;;5067357;28;19919;-79
2022/07/12 05:43:34;;;;;;;;;;;;;;;;;;5063156;28;19921;-80
2022/07/12 05:46:00;;;;;;;;;;;;;;;;;;5043070;28;20032;-79
2022/07/12 05:48:26;;;;;;;;;;;;;;;;;;5060541;28;20015;-80
2022/07/12 05:50:51;;;;;;;;;;;;;;;;;;5060807;28;19949;-80
2022/07/12 05:53:23;;;;;;;;;;;;;;;;;;5026009;28;19923;-80
2022/07/12 05:55:51;;;;;;;;;;;;;;;;;;5060151;28;19924;-81
2022/07/12 05:58:17;;;;;;;;;;;;;;;;;;5041533;28;20278;-81
2022/07/12 06:00:43;;;;;;;;;;;;;;;;;;5061161;28;19901;-81
2022/07/12 06:03:09;;;;;;;;;;;;;;;;;;5048358;28;19928;-81
2022/07/12 06:05:35;;;;;;;;;;;;;;;;;;5059228;28;19974;-81
2022/07/12 06:08:01;;;;;;;;;;;;;;;;;;5060973;28;19917;-81
2022/07/12 06:10:27;;;;;;;;;;;;;;;;;;5061129;28;20345;-80
2022/07/12 06:12:53;;;;;;;;;;;;;;;;;;5059201;28;19942;-81
2022/07/12 06:15:18;;;;;;;;;;;;;;;;;;5059449;28;19917;-81
2022/07/12 06:17:44;;;;;;;;;;;;;;;;;;5040882;28;19924;-81
2022/07/12 06:20:13;;;;;;;;;;;;;;;;;;5060472;28;19916;-81
2022/07/12 06:22:39;;;;;;;;;;;;;;;;;;5067977;28;19923;-81
2022/07/12 06:25:06;;;;;;;;;;;;;;;;;;5058592;28;19917;-81
2022/07/12 06:27:32;;;;;;;;;;;;;;;;;;5058029;28;20335;-81
2022/07/12 06:29:58;;;;;;;;;;;;;;;;;;5057286;28;19967;-79
2022/07/12 06:32:24;;;;;;;;;;;;;;;;;;5058003;28;19916;-80
2022/07/12 06:34:49;;;;;;;;;;;;;;;;;;5058821;28;19917;-82
2022/07/12 06:37:15;;;;;;;;;;;;;;;;;;5058350;28;19916;-81
2022/07/12 06:39:41;;;;;;;;;;;;;;;;;;5059461;28;19924;-81
2022/07/12 06:42:08;;;;;;;;;;;;;;;;;;5029681;28;19920;-81
2022/07/12 06:44:34;;;;;;;;;;;;;;;;;;5046543;28;19921;-84
2022/07/12 06:46:59;;;;;;;;;;;;;;;;;;5062275;28;20349;-82
2022/07/12 06:49:25;;;;;;;;;;;;;;;;;;5043017;28;19921;-82
2022/07/12 06:51:50;;;;;;;;;;;;;;;;;;5040725;28;20339;-82
2022/07/12 06:54:16;;;;;;;;;;;;;;;;;;5058546;28;19917;-81
2022/07/12 06:56:41;;;;;;;;;;;;;;;;;;5057491;28;19916;-81
2022/07/12 06:59:10;;;;;;;;;;;;;;;;;;5057931;28;19965;-81
2022/07/12 07:01:36;;;;;;;;;;;;;;;;;;5059986;28;19917;-80
2022/07/12 07:04:01;;;;;;;;;;;;;;;;;;5067458;28;19923;-82
2022/07/12 07:06:26;;;;;;;;;;;;;;;;;;5056791;28;19959;-80
2022/07/12 07:08:57;;;;;;;;;;;;;;;;;;5040314;28;19944;-82
2022/07/12 07:11:22;;;;;;;;;;;;;;;;;;5042062;28;19916;-81
2022/07/12 07:13:48;;;;;;;;;;;;;;;;;;5058825;28;20309;-82
2022/07/12 07:16:14;;;;;;;;;;;;;;;;;;5063185;28;19924;-81
2022/07/12 07:18:40;;;;;;;;;;;;;;;;;;5026376;28;20308;-81
2022/07/12 07:21:08;;;;;;;;;;;;;;;;;;5041725;28;19917;-81
2022/07/12 07:23:34;;;;;;;;;;;;;;;;;;5067808;28;19941;-84
2022/07/12 07:25:59;;;;;;;;;;;;;;;;;;5064150;28;20358;-81
2022/07/12 07:28:25;;;;;;;;;;;;;;;;;;5025314;28;20335;-82
2022/07/12 07:30:53;;;;;;;;;;;;;;;;;;5023249;28;19949;-81
2022/07/12 07:33:19;;;;;;;;;;;;;;;;;;5023684;28;19928;-82
2022/07/12 07:35:47;;;;;;;;;;;;;;;;;;5038830;28;20324;-81
2022/07/12 07:38:12;;;;;;;;;;;;;;;;;;5041044;28;19916;-82
2022/07/12 07:40:38;;;;;;;;;;;;;;;;;;5024906;28;19924;-82
2022/07/12 07:43:03;;;;;;;;;;;;;;;;;;5064599;28;19982;-81
2022/07/12 07:45:29;;;;;;;;;;;;;;;;;;5061594;28;20694;-81
2022/07/12 07:47:54;;;;;;;;;;;;;;;;;;5037563;28;21211;-81
2022/07/12 07:50:19;;;;;;;;;;;;;;;;;;5038303;28;19918;-82
2022/07/12 07:52:45;;;;;;;;;;;;;;;;;;5037227;28;19999;-82
2022/07/12 07:55:11;;;;;;;;;;;;;;;;;;5001738;28;19976;-79
2022/07/12 07:57:36;;;;;;;;;;;;;;;;;;5001938;28;19917;-81
2022/07/12 08:00:01;;;;;;;;;;;;;;;;;;5037816;28;20341;-81
2022/07/12 08:02:27;;;;;;;;;;;;;;;;;;5021001;28;19966;-82
2022/07/12 08:04:53;;;;;;;;;;;;;;;;;;5050295;28;19921;-81
2022/07/12 08:07:18;;;;;;;;;;;;;;;;;;5039717;28;19917;-80
2022/07/12 08:09:44;;;;;;;;;;;;;;;;;;5037205;28;19917;-81
2022/07/12 08:12:09;;;;;;;;;;;;;;;;;;5019330;28;19918;-80
2022/07/12 08:14:34;;;;;;;;;;;;;;;;;;5036608;28;19917;-80
2022/07/12 08:16:59;;;;;;;;;;;;;;;;;;5036350;28;20169;-81
2022/07/12 08:19:25;;;;;;;;;;;;;;;;;;5036145;28;19917;-80
2022/07/12 08:21:53;;;;;;;;;;;;;;;;;;5018539;28;19948;-80
2022/07/12 08:24:18;;;;;;;;;;;;;;;;;;5045845;28;19905;-80
2022/07/12 08:26:43;;;;;;;;;;;;;;;;;;5022245;28;20317;-81
2022/07/12 08:29:09;;;;;;;;;;;;;;;;;;5018832;28;19917;-80
2022/07/12 08:31:35;;;;;;;;;;;;;;;;;;5036010;28;19913;-79
2022/07/12 08:34:00;;;;;;;;;;;;;;;;;;5017705;28;19975;-81
2022/07/12 08:36:25;;;;;;;;;;;;;;;;;;5036811;28;20323;-79
2022/07/12 08:38:51;;;;;;;;;;;;;;;;;;5037509;28;19963;-84
2022/07/12 08:41:16;;;;;;;;;;;;;;;;;;5043919;28;20417;-82
2022/07/12 08:43:41;;;;;;;;;;;;;;;;;;5062701;28;19920;-81
2022/07/12 08:46:11;;;;;;;;;;;;;;;;;;5065308;28;19921;-80
2022/07/12 08:48:36;;;;;;;;;;;;;;;;;;5038262;28;19924;-83
2022/07/12 08:51:10;;;;;;;;;;;;;;;;;;5055633;28;19913;-81
2022/07/12 08:53:35;;;;;;;;;;;;;;;;;;5068316;28;19939;-81
2022/07/12 08:56:01;;;;;;;;;;;;;;;;;;5062113;28;19913;-82
2022/07/12 08:58:26;;;;;;;;;;;;;;;;;;5041933;28;19923;-81
2022/07/12 09:00:52;;;;;;;;;;;;;;;;;;5059844;28;20328;-82
2022/07/12 09:03:18;;;;;;;;;;;;;;;;;;5059410;28;19967;-81
2022/07/12 09:05:51;;;;;;;;;;;;;;;;;;5073396;28;19908;-81
2022/07/12 09:08:16;;;;;;;;;;;;;;;;;;5064463;28;19917;-81
2022/07/12 09:10:52;;;;;;;;;;;;;;;;;;5050253;28;19972;-84
2022/07/12 09:13:17;;;;;;;;;;;;;;;;;;5063820;28;20348;-81
2022/07/12 09:15:43;;;;;;;;;;;;;;;;;;5045261;28;20333;-80
2022/07/12 09:18:13;;;;;;;;;;;;;;;;;;5046805;28;19988;-83
2022/07/12 09:20:43;;;;;;;;;;;;;;;;;;5065428;28;19917;-81
2022/07/12 09:23:11;;;;;;;;;;;;;;;;;;5063016;28;19939;-81
2022/07/12 09:25:37;;;;;;;;;;;;;;;;;;5048715;28;19916;-80
2022/07/12 09:28:04;;;;;;;;;;;;;;;;;;5063826;28;19923;-84
2022/07/12 09:30:36;;;;;;;;;;;;;;;;;;5062658;28;19952;-81
2022/07/12 09:36:07;;;;;;;;;;;;;;;;;;5063151;28;19982;-83
2022/07/12 09:38:33;;;;;;;;;;;;;;;;;;5063431;28;19917;-82
2022/07/12 09:40:58;;;;;;;;;;;;;;;;;;5062824;28;19983;-82
2022/07/12 09:43:23;;;;;;;;;;;;;;;;;;5042969;28;19921;-82
2022/07/12 09:45:49;;;;;;;;;;;;;;;;;;5048993;28;19939;-84
2022/07/12 09:48:15;;;;;;;;;;;;;;;;;;5047031;28;19924;-81
2022/07/12 09:50:43;;;;;;;;;;;;;;;;;;5042227;28;19917;-81
2022/07/12 09:53:09;;;;;;;;;;;;;;;;;;5041392;28;19988;-80
2022/07/12 09:55:36;;;;;;;;;;;;;;;;;;5042429;28;19917;-82
2022/07/12 09:58:02;;;;;;;;;;;;;;;;;;5043038;28;20335;-82
2022/07/12 10:00:28;;;;;;;;;;;;;;;;;;5042488;28;19921;-81
2022/07/12 10:02:55;;;;;;;;;;;;;;;;;;5049138;28;19928;-83
2022/07/12 10:05:20;;;;;;;;;;;;;;;;;;5048641;28;19921;-82
2022/07/12 10:07:45;;;;;;;;;;;;;;;;;;5050703;28;19928;-82
2022/07/12 10:10:11;;;;;;;;;;;;;;;;;;5024097;28;19918;-83
2022/07/12 10:12:36;;;;;;;;;;;;;;;;;;5044335;28;20315;-83
2022/07/12 10:15:06;;;;;;;;;;;;;;;;;;5045082;28;20240;-85
2022/07/12 10:17:35;;;;;;;;;;;;;;;;;;5041943;28;19917;-82
2022/07/12 10:20:19;;;;;;;;;;;;;;;;;;5039171;28;20012;-82
2022/07/12 10:22:44;;;;;;;;;;;;;;;;;;5043963;28;20266;-82
2022/07/12 10:25:25;;;;;;;;;;;;;;;;;;5046927;28;19917;-82
2022/07/12 10:27:51;;;;;;;;;;;;;;;;;;5051898;28;19921;-81
2022/07/12 10:30:17;;;;;;;;;;;;;;;;;;5044355;28;20081;-83
2022/07/12 10:32:43;;;;;;;;;;;;;;;;;;5047603;28;19939;-83
2022/07/12 10:35:18;;;;;;;;;;;;;;;;;;5046318;28;19917;-84
2022/07/12 10:38:02;;;;;;;;;;;;;;;;;;5045754;28;19917;-81
2022/07/12 10:40:27;;;;;;;;;;;;;;;;;;5044593;28;19917;-83
2022/07/12 10:43:05;;;;;;;;;;;;;;;;;;5040302;28;19975;-82
2022/07/12 10:45:31;;;;;;;;;;;;;;;;;;5058120;28;19978;-81
2022/07/12 10:47:56;;;;;;;;;;;;;;;;;;5067424;28;19913;-83
2022/07/12 10:50:57;;;;;;;;;;;;;;;;;;5056962;28;19923;-82
2022/07/12 10:53:27;;;;;;;;;;;;;;;;;;4974816;28;19922;-83
2022/07/12 10:56:10;;;;;;;;;;;;;;;;;;5023739;28;19923;-82
2022/07/12 10:58:42;;;;;;;;;;;;;;;;;;5055628;28;20309;-81
2022/07/12 11:01:12;;;;;;;;;;;;;;;;;;5055786;28;19917;-86
2022/07/12 11:04:04;;;;;;;;;;;;;;;;;;5056769;28;20011;-86
2022/07/12 11:06:29;;;;;;;;;;;;;;;;;;5055476;28;20254;-88
2022/07/12 11:08:57;;;;;;;;;;;;;;;;;;5070000;28;19936;-87
2022/07/12 11:11:23;;;;;;;;;;;;;;;;;;5058165;28;19924;-85
2022/07/12 11:13:49;;;;;;;;;;;;;;;;;;5056305;28;19924;-91
2022/07/12 11:16:14;;;;;;;;;;;;;;;;;;5055988;28;20326;-86
2022/07/12 11:18:40;;;;;;;;;;;;;;;;;;5054941;28;19917;-85
2022/07/12 11:21:05;;;;;;;;;;;;;;;;;;5054604;28;19924;-88
2022/07/12 11:23:31;;;;;;;;;;;;;;;;;;5056414;28;19916;-87
2022/07/12 11:25:57;;;;;;;;;;;;;;;;;;5037988;28;19920;-85
2022/07/12 11:28:26;;;;;;;;;;;;;;;;;;5064251;28;19915;-84
2022/07/12 11:30:51;;;;;;;;;;;;;;;;;;5063506;28;20296;-87
2022/07/12 11:33:17;;;;;;;;;;;;;;;;;;5055063;28;20021;-85
2022/07/12 11:35:46;;;;;;;;;;;;;;;;;;5055143;28;19924;-86
2022/07/12 11:38:11;;;;;;;;;;;;;;;;;;5054694;28;20254;-86
2022/07/12 11:40:37;;;;;;;;;;;;;;;;;;5054812;28;19917;-86
2022/07/12 11:43:03;;;;;;;;;;;;;;;;;;5036853;28;19960;-86
2022/07/12 11:45:29;;;;;;;;;;;;;;;;;;5053331;28;19917;-85
2022/07/12 11:47:56;;;;;;;;;;;;;;;;;;5055329;28;19917;-87
2022/07/12 11:50:21;;;;;;;;;;;;;;;;;;5067585;28;19990;-87
2022/07/12 11:52:46;;;;;;;;;;;;;;;;;;5055763;28;19917;-86
2022/07/12 11:55:12;;;;;;;;;;;;;;;;;;5055092;28;19917;-87
2022/07/12 11:57:37;;;;;;;;;;;;;;;;;;5054691;28;19923;-86
2022/07/12 12:00:22;;;;;;;;;;;;;;;;;;5054128;28;19916;-86
2022/07/12 12:02:51;;;;;;;;;;;;;;;;;;5054423;28;19952;-88
2022/07/12 12:05:17;;;;;;;;;;;;;;;;;;5054540;28;19923;-85
2022/07/12 12:07:42;;;;;;;;;;;;;;;;;;5053711;28;19917;-87
2022/07/12 12:10:12;;;;;;;;;;;;;;;;;;5068314;28;19905;-87
2022/07/12 12:12:38;;;;;;;;;;;;;;;;;;5060713;28;19924;-88
2022/07/12 12:15:04;;;;;;;;;;;;;;;;;;5054154;28;20372;-89
2022/07/12 12:17:29;;;;;;;;;;;;;;;;;;5054980;28;20008;-87
2022/07/12 12:19:54;;;;;;;;;;;;;;;;;;5057409;28;19960;-87
2022/07/12 12:22:33;;;;;;;;;;;;;;;;;;5064374;28;19916;-86
2022/07/12 12:24:59;;;;;;;;;;;;;;;;;;5062426;28;19924;-86
2022/07/12 12:27:24;;;;;;;;;;;;;;;;;;5066624;28;19923;-87
2022/07/12 12:29:51;;;;;;;;;;;;;;;;;;5066124;28;19968;-86
2022/07/12 12:32:20;;;;;;;;;;;;;;;;;;5072486;28;19923;-85
2022/07/12 12:35:03;;;;;;;;;;;;;;;;;;5066497;28;20382;-87
2022/07/12 12:37:29;;;;;;;;;;;;;;;;;;5058209;28;19924;-87
2022/07/12 12:39:54;;;;;;;;;;;;;;;;;;5058509;28;19917;-87
2022/07/12 12:42:25;;;;;;;;;;;;;;;;;;5058319;28;19917;-87
2022/07/12 12:44:51;;;;;;;;;;;;;;;;;;5058242;28;19921;-88
2022/07/12 12:47:32;;;;;;;;;;;;;;;;;;5057671;28;20011;-85
2022/07/12 12:49:57;;;;;;;;;;;;;;;;;;5062839;28;19948;-84
2022/07/12 12:52:23;;;;;;;;;;;;;;;;;;5073682;28;20289;-86
2022/07/12 12:54:48;;;;;;;;;;;;;;;;;;5051422;28;19924;-85
2022/07/12 12:57:13;;;;;;;;;;;;;;;;;;5061502;28;20330;-90
2022/07/12 12:59:39;;;;;;;;;;;;;;;;;;5058129;28;20333;-86
2022/07/12 13:02:05;;;;;;;;;;;;;;;;;;5057631;28;19913;-87
2022/07/12 13:04:30;;;;;;;;;;;;;;;;;;5057766;28;20323;-86
2022/07/12 13:06:56;;;;;;;;;;;;;;;;;;5057669;28;19970;-87
2022/07/12 13:09:22;;;;;;;;;;;;;;;;;;5061475;28;19917;-86
2022/07/12 13:11:47;;;;;;;;;;;;;;;;;;5077366;28;19972;-84
2022/07/12 13:14:12;;;;;;;;;;;;;;;;;;5060546;28;19923;-90
2022/07/12 13:16:41;;;;;;;;;;;;;;;;;;5058745;28;20254;-87
2022/07/12 13:19:07;;;;;;;;;;;;;;;;;;5057633;28;19917;-87
2022/07/12 13:21:32;;;;;;;;;;;;;;;;;;5057934;28;19963;-88
2022/07/12 13:23:58;;;;;;;;;;;;;;;;;;5039610;28;20338;-85
2022/07/12 13:26:23;;;;;;;;;;;;;;;;;;5057528;28;19978;-87
2022/07/12 13:28:48;;;;;;;;;;;;;;;;;;5057360;28;20254;-88
2022/07/12 13:31:13;;;;;;;;;;;;;;;;;;5064244;28;19925;-86
2022/07/12 13:33:39;;;;;;;;;;;;;;;;;;5066559;28;19921;-86
2022/07/12 13:36:04;;;;;;;;;;;;;;;;;;5059437;28;19982;-85
2022/07/12 13:38:29;;;;;;;;;;;;;;;;;;5056540;28;19917;-85
2022/07/12 13:40:55;;;;;;;;;;;;;;;;;;5057087;28;19967;-88
2022/07/12 13:43:20;;;;;;;;;;;;;;;;;;5056580;28;20343;-88
2022/07/12 13:45:45;;;;;;;;;;;;;;;;;;5056916;28;19917;-88
2022/07/12 13:48:11;;;;;;;;;;;;;;;;;;5056767;28;19916;-87
2022/07/12 13:50:37;;;;;;;;;;;;;;;;;;5057061;28;19924;-87
2022/07/12 13:53:02;;;;;;;;;;;;;;;;;;5069745;28;19921;-86
2022/07/12 13:55:27;;;;;;;;;;;;;;;;;;5056957;28;20006;-86
2022/07/12 13:57:53;;;;;;;;;;;;;;;;;;5056840;28;19917;-88
2022/07/12 14:00:18;;;;;;;;;;;;;;;;;;5038700;28;20004;-88
2022/07/12 14:02:44;;;;;;;;;;;;;;;;;;5056960;28;20016;-90
2022/07/12 14:05:10;;;;;;;;;;;;;;;;;;5055557;28;19924;-85
2022/07/12 14:07:36;;;;;;;;;;;;;;;;;;5056316;28;19916;-87
2022/07/12 14:10:01;;;;;;;;;;;;;;;;;;5038497;28;20007;-87
2022/07/12 14:12:27;;;;;;;;;;;;;;;;;;5062369;28;19941;-86
2022/07/12 14:17:43;;;;;;;;;;;;;;;;;;5056308;28;20398;-87
2022/07/12 14:20:09;;;;;;;;;;;;;;;;;;5056389;28;20007;-86
2022/07/12 14:22:34;;;;;;;;;;;;;;;;;;5056187;28;20354;-88
2022/07/12 14:24:59;;;;;;;;;;;;;;;;;;5054819;28;19917;-86
2022/07/12 14:27:25;;;;;;;;;;;;;;;;;;5054765;28;19921;-88
2022/07/12 14:29:50;;;;;;;;;;;;;;;;;;5056327;28;19916;-86
2022/07/12 14:32:16;;;;;;;;;;;;;;;;;;5059184;28;19920;-86
2022/07/12 14:34:41;;;;;;;;;;;;;;;;;;5065070;28;19921;-89
2022/07/12 14:37:06;;;;;;;;;;;;;;;;;;5056866;28;19917;-86
2022/07/12 14:39:32;;;;;;;;;;;;;;;;;;5056207;28;20002;-88
2022/07/12 14:41:58;;;;;;;;;;;;;;;;;;5056067;28;19920;-87
2022/07/12 14:44:25;;;;;;;;;;;;;;;;;;5055496;28;20447;-88
2022/07/12 14:46:52;;;;;;;;;;;;;;;;;;5056171;28;20008;-89
2022/07/12 14:49:19;;;;;;;;;;;;;;;;;;5054966;28;19924;-85
2022/07/12 14:51:44;;;;;;;;;;;;;;;;;;5054841;28;20252;-87
2022/07/12 14:54:10;;;;;;;;;;;;;;;;;;5067306;28;19924;-87
2022/07/12 14:56:35;;;;;;;;;;;;;;;;;;5058138;28;20326;-87
2022/07/12 14:59:00;;;;;;;;;;;;;;;;;;5055415;28;20417;-87
2022/07/12 15:01:28;;;;;;;;;;;;;;;;;;5055694;28;19917;-88
2022/07/12 15:03:53;;;;;;;;;;;;;;;;;;5055689;28;19924;-88
2022/07/12 15:06:18;;;;;;;;;;;;;;;;;;5056748;28;19917;-85
2022/07/12 15:08:44;;;;;;;;;;;;;;;;;;5055228;28;19924;-87
2022/07/12 15:11:09;;;;;;;;;;;;;;;;;;5055606;28;19917;-84
2022/07/12 15:13:34;;;;;;;;;;;;;;;;;;5061633;28;20302;-88
2022/07/12 15:16:00;;;;;;;;;;;;;;;;;;5063420;28;19917;-85
2022/07/12 15:18:25;;;;;;;;;;;;;;;;;;5055300;28;19920;-86
2022/07/12 15:20:50;;;;;;;;;;;;;;;;;;5054947;28;19956;-86
2022/07/12 15:23:16;;;;;;;;;;;;;;;;;;5053958;28;20337;-86
2022/07/12 15:25:41;;;;;;;;;;;;;;;;;;5054909;28;19917;-84
2022/07/12 15:28:06;;;;;;;;;;;;;;;;;;5055169;28;20258;-87
2022/07/12 15:30:32;;;;;;;;;;;;;;;;;;5055472;28;19917;-87
2022/07/12 15:32:57;;;;;;;;;;;;;;;;;;5055237;28;20301;-86
2022/07/12 15:35:23;;;;;;;;;;;;;;;;;;5068634;28;20395;-86
2022/07/12 15:37:48;;;;;;;;;;;;;;;;;;5056183;28;19924;-86
2022/07/12 15:40:13;;;;;;;;;;;;;;;;;;5055050;28;20327;-89
2022/07/12 15:42:39;;;;;;;;;;;;;;;;;;5053716;28;20330;-87
2022/07/12 15:45:04;;;;;;;;;;;;;;;;;;5055123;28;20278;-85
2022/07/12 15:47:30;;;;;;;;;;;;;;;;;;5036947;28;19924;-85
2022/07/12 15:49:55;;;;;;;;;;;;;;;;;;5054820;28;19924;-88
2022/07/12 15:55:08;;;;;;;;;;;;;;;;;;5063007;28;19955;-85
2022/07/12 15:57:34;;;;;;;;;;;;;;;;;;5056774;28;19927;-86
2022/07/12 15:59:59;;;;;;;;;;;;;;;;;;5054684;28;19917;-84
2022/07/12 16:02:24;;;;;;;;;;;;;;;;;;5054827;28;19921;-86
2022/07/12 16:04:50;;;;;;;;;;;;;;;;;;5054695;28;19925;-88
2022/07/12 16:07:16;;;;;;;;;;;;;;;;;;5053913;28;19920;-88
2022/07/12 16:09:41;;;;;;;;;;;;;;;;;;5054386;28;19921;-86
2022/07/12 16:12:07;;;;;;;;;;;;;;;;;;5054551;28;20066;-86
2022/07/12 16:14:32;;;;;;;;;;;;;;;;;;5057712;28;20381;-83
2022/07/12 16:16:57;;;;;;;;;;;;;;;;;;5048233;28;19928;-89
2022/07/12 16:19:23;;;;;;;;;;;;;;;;;;5054601;28;20305;-87
2022/07/12 16:21:48;;;;;;;;;;;;;;;;;;5053043;28;19932;-85
2022/07/12 16:24:14;;;;;;;;;;;;;;;;;;5054583;28;19970;-87
2022/07/12 16:26:40;;;;;;;;;;;;;;;;;;5054056;28;19917;-87
2022/07/12 16:29:05;;;;;;;;;;;;;;;;;;5054481;28;19956;-85
2022/07/12 16:31:30;;;;;;;;;;;;;;;;;;5056439;28;20232;-85
2022/07/12 16:33:56;;;;;;;;;;;;;;;;;;5054366;28;19916;-84
2022/07/12 16:36:21;;;;;;;;;;;;;;;;;;5065683;28;19921;-87
2022/07/12 16:38:47;;;;;;;;;;;;;;;;;;5058264;28;19917;-87
2022/07/12 16:41:12;;;;;;;;;;;;;;;;;;5054280;28;19916;-85
2022/07/12 16:43:39;;;;;;;;;;;;;;;;;;5054540;28;20011;-85
2022/07/12 16:46:04;;;;;;;;;;;;;;;;;;5054663;28;20258;-85
2022/07/12 16:48:31;;;;;;;;;;;;;;;;;;5037788;28;19917;-85
2022/07/12 16:53:40;;;;;;;;;;;;;;;;;;5058906;28;20270;-86
2022/07/12 16:56:06;;;;;;;;;;;;;;;;;;5065028;28;19912;-87